sensor_id;sensor_type;location;lat;lon;timestamp;pressure;altitude;pressure_sealevel;temperature;humidity
20043;BME280;10182;52.896;6.496;2024-03-23T00:55:14;100902.03;;;5.70;100.00
20043;BME280;10182;52.896;6.496;2024-03-23T01:00:16;100889.97;;;5.62;100.00
20043;BME280;10182;52.896;6.496;2024-03-23T01:05:18;100881.34;;;5.55;100.00
20043;BME280;10182;52.896;6.496;2024-03-23T01:10:21;100873.72;;;5.46;100.00
20043;BME280;10182;52.896;6.496;2024-03-23T01:15:22;100875.69;;;5.36;100.00
20043;BME280;10182;52.896;6.496;2024-03-23T01:20:24;100866.25;;;5.27;100.00
20043;BME280;10182;52.896;6.496;2024-03-23T01:25:27;100863.69;;;5.24;100.00
20043;BME280;10182;52.896;6.496;2024-03-23T01:30:28;100860.47;;;5.11;100.00
20043;BME280;10182;52.896;6.496;2024-03-23T01:35:30;100858.06;;;5.02;100.00
20043;BME280;10182;52.896;6.496;2024-03-23T01:40:33;100844.97;;;5.00;100.00
20043;BME280;10182;52.896;6.496;2024-03-23T01:45:35;100832.81;;;4.95;100.00
20043;BME280;10182;52.896;6.496;2024-03-23T01:50:38;100829.41;;;4.91;100.00
20043;BME280;10182;52.896;6.496;2024-03-23T01:55:41;100822.63;;;4.81;100.00
20043;BME280;10182;52.896;6.496;2024-03-23T02:00:42;100816.59;;;4.75;100.00
20043;BME280;10182;52.896;6.496;2024-03-23T02:05:44;100806.09;;;4.75;100.00
20043;BME280;10182;52.896;6.496;2024-03-23T02:10:47;100792.28;;;4.67;100.00
20043;BME280;10182;52.896;6.496;2024-03-23T02:15:49;100793.19;;;4.66;100.00
20043;BME280;10182;52.896;6.496;2024-03-23T02:20:51;100792.28;;;4.67;100.00
20043;BME280;10182;52.896;6.496;2024-03-23T02:25:54;100782.81;;;4.60;100.00
20043;BME280;10182;52.896;6.496;2024-03-23T02:30:55;100780.28;;;4.57;100.00
20043;BME280;10182;52.896;6.496;2024-03-23T02:35:57;100773.44;;;4.50;100.00
20043;BME280;10182;52.896;6.496;2024-03-23T02:41:03;100765.63;;;4.45;100.00
20043;BME280;10182;52.896;6.496;2024-03-23T02:46:04;100757.03;;;4.38;100.00
20043;BME280;10182;52.896;6.496;2024-03-23T02:51:06;100759.88;;;4.29;100.00
20043;BME280;10182;52.896;6.496;2024-03-23T02:56:09;100761.69;;;4.26;100.00
20043;BME280;10182;52.896;6.496;2024-03-23T03:01:16;100758.16;;;4.27;100.00
20043;BME280;10182;52.896;6.496;2024-03-23T03:06:23;100755.53;;;4.25;100.00
20043;BME280;10182;52.896;6.496;2024-03-23T03:11:26;100747.81;;;4.19;100.00
20043;BME280;10182;52.896;6.496;2024-03-23T03:16:27;100743.59;;;4.12;100.00
20043;BME280;10182;52.896;6.496;2024-03-23T03:21:29;100738.41;;;4.09;100.00
20043;BME280;10182;52.896;6.496;2024-03-23T03:26:32;100741.09;;;4.05;100.00
20043;BME280;10182;52.896;6.496;2024-03-23T03:31:34;100737.69;;;4.00;100.00
20043;BME280;10182;52.896;6.496;2024-03-23T03:36:35;100731.69;;;3.95;100.00
20043;BME280;10182;52.896;6.496;2024-03-23T03:41:38;100726.44;;;3.94;100.00
20043;BME280;10182;52.896;6.496;2024-03-23T03:46:40;100725.66;;;3.90;100.00
20043;BME280;10182;52.896;6.496;2024-03-23T03:51:42;100715.25;;;3.87;100.00
20043;BME280;10182;52.896;6.496;2024-03-23T03:56:45;100704.78;;;3.85;100.00
20043;BME280;10182;52.896;6.496;2024-03-23T04:01:46;100711.78;;;3.85;100.00
20043;BME280;10182;52.896;6.496;2024-03-23T04:06:48;100703.03;;;3.86;100.00
20043;BME280;10182;52.896;6.496;2024-03-23T04:11:51;100703.00;;;3.87;100.00
20043;BME280;10182;52.896;6.496;2024-03-23T04:16:53;100704.06;;;3.77;100.00
20043;BME280;10182;52.896;6.496;2024-03-23T04:21:55;100699.78;;;3.73;100.00
20043;BME280;10182;52.896;6.496;2024-03-23T04:26:58;100698.09;;;3.70;100.00
20043;BME280;10182;52.896;6.496;2024-03-23T04:32:00;100693.84;;;3.63;100.00
20043;BME280;10182;52.896;6.496;2024-03-23T04:37:02;100687.78;;;3.61;100.00
20043;BME280;10182;52.896;6.496;2024-03-23T04:42:06;100689.69;;;3.53;100.00
20043;BME280;10182;52.896;6.496;2024-03-23T04:47:08;100694.97;;;3.50;100.00
20043;BME280;10182;52.896;6.496;2024-03-23T04:52:10;100684.47;;;3.50;100.00
20043;BME280;10182;52.896;6.496;2024-03-23T04:57:13;100676.66;;;3.48;100.00
20043;BME280;10182;52.896;6.496;2024-03-23T05:02:17;100664.44;;;3.49;100.00
20043;BME280;10182;52.896;6.496;2024-03-23T05:07:18;100661.84;;;3.47;100.00
20043;BME280;10182;52.896;6.496;2024-03-23T05:12:21;100665.41;;;3.45;100.00
20043;BME280;10182;52.896;6.496;2024-03-23T05:17:23;100660.16;;;3.45;100.00
20043;BME280;10182;52.896;6.496;2024-03-23T05:22:25;100664.47;;;3.47;100.00
20043;BME280;10182;52.896;6.496;2024-03-23T05:27:28;100654.88;;;3.46;100.00
20043;BME280;10182;52.896;6.496;2024-03-23T05:32:30;100658.38;;;3.45;100.00
20043;BME280;10182;52.896;6.496;2024-03-23T05:37:32;100668.03;;;3.43;100.00
20043;BME280;10182;52.896;6.496;2024-03-23T05:42:35;100655.78;;;3.45;100.00
20043;BME280;10182;52.896;6.496;2024-03-23T05:47:37;100660.09;;;3.48;100.00
20043;BME280;10182;52.896;6.496;2024-03-23T05:52:39;100657.38;;;3.52;100.00
20043;BME280;10182;52.896;6.496;2024-03-23T05:57:42;100657.28;;;3.59;100.00
20043;BME280;10182;52.896;6.496;2024-03-23T06:02:44;100667.22;;;3.85;100.00
20043;BME280;10182;52.896;6.496;2024-03-23T06:07:45;100664.16;;;4.08;100.00
20043;BME280;10182;52.896;6.496;2024-03-23T06:12:48;100672.56;;;4.24;100.00
20043;BME280;10182;52.896;6.496;2024-03-23T06:17:52;100670.47;;;4.38;100.00
20043;BME280;10182;52.896;6.496;2024-03-23T06:22:53;100676.50;;;4.44;100.00
20043;BME280;10182;52.896;6.496;2024-03-23T06:27:57;100683.44;;;4.46;100.00
20043;BME280;10182;52.896;6.496;2024-03-23T06:33:00;100667.09;;;4.35;100.00
20043;BME280;10182;52.896;6.496;2024-03-23T06:38:01;100650.44;;;4.36;100.00
20043;BME280;10182;52.896;6.496;2024-03-23T06:43:04;100640.63;;;4.44;100.00
20043;BME280;10182;52.896;6.496;2024-03-23T06:48:07;100639.81;;;4.42;100.00
20043;BME280;10182;52.896;6.496;2024-03-23T06:53:09;100649.28;;;4.48;100.00
20043;BME280;10182;52.896;6.496;2024-03-23T06:58:12;100653.63;;;4.50;100.00
20043;BME280;10182;52.896;6.496;2024-03-23T07:03:14;100649.22;;;4.51;100.00
20043;BME280;10182;52.896;6.496;2024-03-23T07:08:16;100643.19;;;4.47;100.00
20043;BME280;10182;52.896;6.496;2024-03-23T07:13:23;100642.91;;;4.60;100.00
20043;BME280;10182;52.896;6.496;2024-03-23T07:18:24;100641.25;;;4.91;100.00
20043;BME280;10182;52.896;6.496;2024-03-23T07:23:26;100652.22;;;5.09;100.00
20043;BME280;10182;52.896;6.496;2024-03-23T07:28:29;100675.44;;;4.51;100.00
20043;BME280;10182;52.896;6.496;2024-03-23T07:33:32;100653.88;;;4.38;100.00
20043;BME280;10182;52.896;6.496;2024-03-23T07:38:34;100645.94;;;4.41;100.00
20043;BME280;10182;52.896;6.496;2024-03-23T07:43:38;100643.97;;;4.51;100.00
20043;BME280;10182;52.896;6.496;2024-03-23T07:48:41;100668.84;;;4.72;100.00
20043;BME280;10182;52.896;6.496;2024-03-23T07:53:43;100671.84;;;4.55;100.00
20043;BME280;10182;52.896;6.496;2024-03-23T07:58:47;100657.41;;;4.37;100.00
20043;BME280;10182;52.896;6.496;2024-03-23T08:03:49;100640.00;;;4.33;100.00
20043;BME280;10182;52.896;6.496;2024-03-23T08:08:52;100645.38;;;4.28;100.00
20043;BME280;10182;52.896;6.496;2024-03-23T08:14:01;100664.09;;;4.10;100.00
20043;BME280;10182;52.896;6.496;2024-03-23T08:19:03;100658.75;;;4.16;100.00
20043;BME280;10182;52.896;6.496;2024-03-23T08:24:05;100651.56;;;4.24;100.00
20043;BME280;10182;52.896;6.496;2024-03-23T08:29:08;100633.31;;;4.19;100.00
20043;BME280;10182;52.896;6.496;2024-03-23T08:34:10;100632.97;;;4.72;100.00
20043;BME280;10182;52.896;6.496;2024-03-23T08:39:12;100633.78;;;5.11;100.00
20043;BME280;10182;52.896;6.496;2024-03-23T08:44:15;100616.56;;;5.33;100.00
20043;BME280;10182;52.896;6.496;2024-03-23T08:49:16;100615.94;;;5.56;100.00
20043;BME280;10182;52.896;6.496;2024-03-23T08:54:18;100607.25;;;5.84;100.00
20043;BME280;10182;52.896;6.496;2024-03-23T08:59:24;100605.41;;;5.88;100.00
20043;BME280;10182;52.896;6.496;2024-03-23T09:04:25;100607.41;;;5.80;100.00
20043;BME280;10182;52.896;6.496;2024-03-23T09:09:27;100608.16;;;5.83;100.00
20043;BME280;10182;52.896;6.496;2024-03-23T09:14:30;100602.25;;;5.75;100.00
20043;BME280;10182;52.896;6.496;2024-03-23T09:19:31;100599.94;;;5.64;100.00
20043;BME280;10182;52.896;6.496;2024-03-23T09:24:33;100597.53;;;5.86;100.00
20043;BME280;10182;52.896;6.496;2024-03-23T09:29:36;100590.47;;;6.20;100.00
20043;BME280;10182;52.896;6.496;2024-03-23T09:34:38;100592.81;;;6.29;100.00
20043;BME280;10182;52.896;6.496;2024-03-23T09:39:39;100594.25;;;6.09;100.00
20043;BME280;10182;52.896;6.496;2024-03-23T09:44:43;100600.09;;;5.89;100.00
20043;BME280;10182;52.896;6.496;2024-03-23T09:49:45;100604.13;;;5.71;100.00
20043;BME280;10182;52.896;6.496;2024-03-23T09:54:47;100596.91;;;5.48;100.00
20043;BME280;10182;52.896;6.496;2024-03-23T09:59:50;100601.91;;;5.24;100.00
20043;BME280;10182;52.896;6.496;2024-03-23T10:04:51;100601.75;;;4.98;100.00
20043;BME280;10182;52.896;6.496;2024-03-23T10:09:53;100618.44;;;4.95;100.00
20043;BME280;10182;52.896;6.496;2024-03-23T10:14:56;100613.94;;;5.00;100.00
20043;BME280;10182;52.896;6.496;2024-03-23T10:19:58;100600.81;;;5.00;100.00
20043;BME280;10182;52.896;6.496;2024-03-23T10:25:07;100599.59;;;5.45;100.00
20043;BME280;10182;52.896;6.496;2024-03-23T10:30:13;100602.53;;;5.96;100.00
20043;BME280;10182;52.896;6.496;2024-03-23T10:35:16;100580.72;;;6.22;100.00
20043;BME280;10182;52.896;6.496;2024-03-23T10:40:19;100588.50;;;6.55;100.00
20043;BME280;10182;52.896;6.496;2024-03-23T10:45:22;100579.44;;;7.16;100.00
20043;BME280;10182;52.896;6.496;2024-03-23T10:50:24;100594.31;;;7.42;100.00
20043;BME280;10182;52.896;6.496;2024-03-23T10:55:26;100610.00;;;5.81;100.00
20043;BME280;10182;52.896;6.496;2024-03-23T11:00:30;100611.13;;;5.06;100.00
20043;BME280;10182;52.896;6.496;2024-03-23T11:05:32;100607.38;;;5.15;100.00
20043;BME280;10182;52.896;6.496;2024-03-23T11:10:34;100599.38;;;5.21;100.00
20043;BME280;10182;52.896;6.496;2024-03-23T11:15:37;100603.69;;;5.55;100.00
20043;BME280;10182;52.896;6.496;2024-03-23T11:20:39;100597.91;;;6.05;100.00
20043;BME280;10182;52.896;6.496;2024-03-23T11:25:41;100583.56;;;5.86;100.00
20043;BME280;10182;52.896;6.496;2024-03-23T11:30:44;100580.59;;;6.26;100.00
20043;BME280;10182;52.896;6.496;2024-03-23T11:35:46;100564.88;;;6.52;100.00
20043;BME280;10182;52.896;6.496;2024-03-23T11:40:49;100566.97;;;6.69;100.00
20043;BME280;10182;52.896;6.496;2024-03-23T11:45:52;100561.13;;;6.86;100.00
20043;BME280;10182;52.896;6.496;2024-03-23T11:50:57;100551.94;;;7.23;100.00
20043;BME280;10182;52.896;6.496;2024-03-23T11:55:59;100551.13;;;7.46;100.00
20043;BME280;10182;52.896;6.496;2024-03-23T12:01:10;100554.09;;;7.84;100.00
20043;BME280;10182;52.896;6.496;2024-03-23T12:06:12;100548.38;;;7.00;100.00
20043;BME280;10182;52.896;6.496;2024-03-23T12:11:15;100545.50;;;6.81;100.00
20043;BME280;10182;52.896;6.496;2024-03-23T12:16:19;100553.00;;;6.67;100.00
20043;BME280;10182;52.896;6.496;2024-03-23T12:21:21;100546.38;;;7.07;100.00
20043;BME280;10182;52.896;6.496;2024-03-23T12:26:23;100526.88;;;7.36;100.00
20043;BME280;10182;52.896;6.496;2024-03-23T12:31:26;100525.81;;;7.66;100.00
20043;BME280;10182;52.896;6.496;2024-03-23T12:36:28;100526.81;;;7.14;100.00
20043;BME280;10182;52.896;6.496;2024-03-23T12:41:30;100528.81;;;6.81;100.00
20043;BME280;10182;52.896;6.496;2024-03-23T12:46:33;100515.84;;;7.01;100.00
20043;BME280;10182;52.896;6.496;2024-03-23T12:51:34;100506.56;;;7.40;100.00
20043;BME280;10182;52.896;6.496;2024-03-23T12:56:36;100500.84;;;7.74;100.00
20043;BME280;10182;52.896;6.496;2024-03-23T13:01:39;100508.16;;;7.44;100.00
20043;BME280;10182;52.896;6.496;2024-03-23T13:06:40;100508.94;;;7.70;100.00
20043;BME280;10182;52.896;6.496;2024-03-23T13:11:42;100493.25;;;8.33;100.00
20043;BME280;10182;52.896;6.496;2024-03-23T13:16:45;100503.38;;;8.44;100.00
20043;BME280;10182;52.896;6.496;2024-03-23T13:21:47;100497.25;;;8.43;100.00
20043;BME280;10182;52.896;6.496;2024-03-23T13:26:49;100517.97;;;7.86;100.00
20043;BME280;10182;52.896;6.496;2024-03-23T13:31:52;100515.63;;;7.78;100.00
20043;BME280;10182;52.896;6.496;2024-03-23T13:36:54;100497.25;;;7.99;100.00
20043;BME280;10182;52.896;6.496;2024-03-23T13:41:56;100502.72;;;8.17;100.00
20043;BME280;10182;52.896;6.496;2024-03-23T13:46:59;100524.53;;;7.76;100.00
20043;BME280;10182;52.896;6.496;2024-03-23T13:52:01;100510.50;;;6.77;100.00
20043;BME280;10182;52.896;6.496;2024-03-23T13:57:03;100518.22;;;5.73;100.00
20043;BME280;10182;52.896;6.496;2024-03-23T14:02:06;100508.59;;;5.42;100.00
20043;BME280;10182;52.896;6.496;2024-03-23T14:07:07;100517.09;;;5.52;100.00
20043;BME280;10182;52.896;6.496;2024-03-23T14:12:10;100521.66;;;5.75;100.00
20043;BME280;10182;52.896;6.496;2024-03-23T14:17:14;100511.69;;;5.87;100.00
20043;BME280;10182;52.896;6.496;2024-03-23T14:22:16;100516.63;;;5.98;100.00
20043;BME280;10182;52.896;6.496;2024-03-23T14:27:19;100517.94;;;6.13;100.00
20043;BME280;10182;52.896;6.496;2024-03-23T14:32:23;100500.81;;;6.26;100.00
20043;BME280;10182;52.896;6.496;2024-03-23T14:37:26;100521.78;;;6.29;100.00
20043;BME280;10182;52.896;6.496;2024-03-23T14:42:28;100522.59;;;6.58;100.00
20043;BME280;10182;52.896;6.496;2024-03-23T14:47:32;100575.63;;;6.46;100.00
20043;BME280;10182;52.896;6.496;2024-03-23T14:52:34;100541.88;;;5.42;100.00
20043;BME280;10182;52.896;6.496;2024-03-23T14:57:36;100527.91;;;5.41;100.00
20043;BME280;10182;52.896;6.496;2024-03-23T15:02:40;100520.28;;;5.92;100.00
20043;BME280;10182;52.896;6.496;2024-03-23T15:07:42;100496.84;;;6.14;100.00
20043;BME280;10182;52.896;6.496;2024-03-23T15:12:44;100487.78;;;6.23;100.00
20043;BME280;10182;52.896;6.496;2024-03-23T15:17:47;100480.78;;;6.49;100.00
20043;BME280;10182;52.896;6.496;2024-03-23T15:22:48;100477.47;;;6.69;100.00
20043;BME280;10182;52.896;6.496;2024-03-23T15:27:50;100470.84;;;6.57;100.00
20043;BME280;10182;52.896;6.496;2024-03-23T15:32:53;100507.25;;;5.87;100.00
20043;BME280;10182;52.896;6.496;2024-03-23T15:37:55;100499.19;;;5.65;100.00
20043;BME280;10182;52.896;6.496;2024-03-23T15:42:56;100489.56;;;5.64;100.00
20043;BME280;10182;52.896;6.496;2024-03-23T15:47:59;100484.56;;;5.56;100.00
20043;BME280;10182;52.896;6.496;2024-03-23T15:53:01;100482.31;;;5.72;100.00
20043;BME280;10182;52.896;6.496;2024-03-23T15:58:03;100463.72;;;5.79;100.00
20043;BME280;10182;52.896;6.496;2024-03-23T16:03:06;100457.69;;;6.05;100.00
20043;BME280;10182;52.896;6.496;2024-03-23T16:08:08;100462.13;;;6.03;100.00
20043;BME280;10182;52.896;6.496;2024-03-23T16:13:09;100468.41;;;5.97;100.00
20043;BME280;10182;52.896;6.496;2024-03-23T16:18:13;100468.41;;;5.97;100.00
20043;BME280;10182;52.896;6.496;2024-03-23T16:23:14;100473.72;;;5.96;100.00
20043;BME280;10182;52.896;6.496;2024-03-23T16:28:16;100459.97;;;6.16;100.00
20043;BME280;10182;52.896;6.496;2024-03-23T16:33:19;100455.41;;;5.92;100.00
20043;BME280;10182;52.896;6.496;2024-03-23T16:38:21;100464.19;;;5.91;100.00
20043;BME280;10182;52.896;6.496;2024-03-23T16:43:23;100462.53;;;5.89;100.00
20043;BME280;10182;52.896;6.496;2024-03-23T16:48:28;100470.84;;;5.75;100.00
20043;BME280;10182;52.896;6.496;2024-03-23T16:53:30;100461.00;;;5.82;100.00
20043;BME280;10182;52.896;6.496;2024-03-23T16:58:32;100454.69;;;5.87;100.00
20043;BME280;10182;52.896;6.496;2024-03-23T17:03:36;100453.00;;;5.85;100.00
20043;BME280;10182;52.896;6.496;2024-03-23T17:08:37;100454.34;;;5.70;100.00
20043;BME280;10182;52.896;6.496;2024-03-23T17:13:39;100460.88;;;5.58;100.00
20043;BME280;10182;52.896;6.496;2024-03-23T17:18:42;100460.50;;;5.40;100.00
20043;BME280;10182;52.896;6.496;2024-03-23T17:23:44;100462.97;;;5.45;100.00
20043;BME280;10182;52.896;6.496;2024-03-23T17:28:46;100470.13;;;5.41;100.00
20043;BME280;10182;52.896;6.496;2024-03-23T17:33:50;100452.13;;;5.28;100.00
20043;BME280;10182;52.896;6.496;2024-03-23T17:38:53;100458.28;;;5.27;100.00
20043;BME280;10182;52.896;6.496;2024-03-23T17:43:55;100440.91;;;5.22;100.00
20043;BME280;10182;52.896;6.496;2024-03-23T17:48:58;100442.88;;;5.14;100.00
20043;BME280;10182;52.896;6.496;2024-03-23T17:54:00;100439.19;;;4.90;100.00
20043;BME280;10182;52.896;6.496;2024-03-23T17:59:01;100436.84;;;4.79;100.00
20043;BME280;10182;52.896;6.496;2024-03-23T18:04:12;100435.84;;;4.52;100.00
20043;BME280;10182;52.896;6.496;2024-03-23T18:09:15;100430.78;;;4.44;100.00
20043;BME280;10182;52.896;6.496;2024-03-23T18:14:17;100432.91;;;4.30;100.00
20043;BME280;10182;52.896;6.496;2024-03-23T18:19:20;100439.22;;;4.22;100.00
20043;BME280;10182;52.896;6.496;2024-03-23T18:24:22;100441.19;;;4.14;100.00
20043;BME280;10182;52.896;6.496;2024-03-23T18:29:23;100448.28;;;4.09;100.00
20043;BME280;10182;52.896;6.496;2024-03-23T18:34:26;100451.88;;;4.05;100.00
20043;BME280;10182;52.896;6.496;2024-03-23T18:39:28;100438.81;;;4.03;100.00
20043;BME280;10182;52.896;6.496;2024-03-23T18:44:30;100432.59;;;4.07;100.00
20043;BME280;10182;52.896;6.496;2024-03-23T18:49:33;100432.56;;;4.09;100.00
20043;BME280;10182;52.896;6.496;2024-03-23T18:54:34;100439.28;;;4.19;100.00
20043;BME280;10182;52.896;6.496;2024-03-23T18:59:36;100437.38;;;4.26;100.00
20043;BME280;10182;52.896;6.496;2024-03-23T19:04:39;100414.34;;;4.39;100.00
20043;BME280;10182;52.896;6.496;2024-03-23T19:09:41;100422.25;;;4.37;100.00
20043;BME280;10182;52.896;6.496;2024-03-23T19:14:43;100424.22;;;4.29;100.00
20043;BME280;10182;52.896;6.496;2024-03-23T19:19:46;100418.03;;;4.30;100.00
20043;BME280;10182;52.896;6.496;2024-03-23T19:24:47;100415.19;;;4.39;100.00
20043;BME280;10182;52.896;6.496;2024-03-23T19:29:49;100414.25;;;4.42;100.00
20043;BME280;10182;52.896;6.496;2024-03-23T19:34:52;100412.31;;;4.49;100.00
20043;BME280;10182;52.896;6.496;2024-03-23T19:39:53;100413.22;;;4.48;100.00
20043;BME280;10182;52.896;6.496;2024-03-23T19:44:56;100413.31;;;4.45;100.00
20043;BME280;10182;52.896;6.496;2024-03-23T19:49:59;100401.00;;;4.47;100.00
20043;BME280;10182;52.896;6.496;2024-03-23T19:55:01;100398.03;;;4.26;100.00
20043;BME280;10182;52.896;6.496;2024-03-23T20:00:04;100390.31;;;4.21;100.00
20043;BME280;10182;52.896;6.496;2024-03-23T20:05:08;100387.63;;;4.23;100.00
20043;BME280;10182;52.896;6.496;2024-03-23T20:10:10;100386.00;;;4.19;100.00
20043;BME280;10182;52.896;6.496;2024-03-23T20:15:12;100384.41;;;4.13;100.00
20043;BME280;10182;52.896;6.496;2024-03-23T20:20:16;100380.22;;;4.04;100.00
20043;BME280;10182;52.896;6.496;2024-03-23T20:25:17;100378.72;;;3.96;100.00
20043;BME280;10182;52.896;6.496;2024-03-23T20:30:19;100373.34;;;4.02;100.00
20043;BME280;10182;52.896;6.496;2024-03-23T20:35:22;100380.38;;;4.00;100.00
20043;BME280;10182;52.896;6.496;2024-03-23T20:40:24;100372.84;;;3.86;100.00
20043;BME280;10182;52.896;6.496;2024-03-23T20:45:26;100369.47;;;3.81;100.00
20043;BME280;10182;52.896;6.496;2024-03-23T20:50:29;100374.00;;;3.74;100.00
20043;BME280;10182;52.896;6.496;2024-03-23T20:55:31;100378.44;;;3.72;100.00
20043;BME280;10182;52.896;6.496;2024-03-23T21:00:32;100364.56;;;3.67;100.00
20043;BME280;10182;52.896;6.496;2024-03-23T21:05:35;100356.50;;;3.76;100.00
20043;BME280;10182;52.896;6.496;2024-03-23T21:10:37;100355.13;;;3.61;100.00
20043;BME280;10182;52.896;6.496;2024-03-23T21:15:45;100342.81;;;3.63;100.00
20043;BME280;10182;52.896;6.496;2024-03-23T21:20:53;100344.50;;;3.66;100.00
20043;BME280;10182;52.896;6.496;2024-03-23T21:25:55;100334.13;;;3.63;100.00
20043;BME280;10182;52.896;6.496;2024-03-23T21:30:57;100328.16;;;3.56;100.00
20043;BME280;10182;52.896;6.496;2024-03-23T21:36:00;100316.84;;;3.55;100.00
20043;BME280;10182;52.896;6.496;2024-03-23T21:41:02;100308.72;;;3.65;100.00
20043;BME280;10182;52.896;6.496;2024-03-23T21:46:04;100303.66;;;3.59;100.00
20043;BME280;10182;52.896;6.496;2024-03-23T21:51:07;100298.38;;;3.60;100.00
20043;BME280;10182;52.896;6.496;2024-03-23T21:56:09;100293.09;;;3.62;100.00
20043;BME280;10182;52.896;6.496;2024-03-23T22:01:10;100279.91;;;3.66;100.00
20043;BME280;10182;52.896;6.496;2024-03-23T22:06:14;100277.03;;;3.76;100.00
20043;BME280;10182;52.896;6.496;2024-03-23T22:11:17;100265.50;;;3.83;100.00
20043;BME280;10182;52.896;6.496;2024-03-23T22:16:18;100248.81;;;3.87;100.00
20043;BME280;10182;52.896;6.496;2024-03-23T22:21:21;100238.31;;;3.87;100.00
20043;BME280;10182;52.896;6.496;2024-03-23T22:26:23;100228.34;;;4.00;100.00
20043;BME280;10182;52.896;6.496;2024-03-23T22:31:25;100227.59;;;3.95;100.00
20043;BME280;10182;52.896;6.496;2024-03-23T22:36:28;100218.41;;;3.80;100.00
20043;BME280;10182;52.896;6.496;2024-03-23T22:41:29;100217.38;;;3.85;100.00
20043;BME280;10182;52.896;6.496;2024-03-23T22:46:31;100214.09;;;3.79;100.00
20043;BME280;10182;52.896;6.496;2024-03-23T22:51:34;100213.44;;;3.70;100.00
20043;BME280;10182;52.896;6.496;2024-03-23T22:56:36;100209.69;;;3.79;100.00
20043;BME280;10182;52.896;6.496;2024-03-23T23:01:37;100210.47;;;3.83;100.00
20043;BME280;10182;52.896;6.496;2024-03-23T23:06:40;100198.09;;;3.88;100.00
20043;BME280;10182;52.896;6.496;2024-03-23T23:11:42;100192.75;;;3.93;100.00
20043;BME280;10182;52.896;6.496;2024-03-23T23:16:44;100195.97;;;4.02;100.00
20043;BME280;10182;52.896;6.496;2024-03-23T23:21:47;100180.22;;;4.02;100.00
20043;BME280;10182;52.896;6.496;2024-03-23T23:26:49;100170.34;;;4.12;100.00
20043;BME280;10182;52.896;6.496;2024-03-23T23:31:50;100150.63;;;4.29;100.00
20043;BME280;10182;52.896;6.496;2024-03-23T23:36:53;100139.28;;;4.28;100.00
20043;BME280;10182;52.896;6.496;2024-03-23T23:41:55;100123.56;;;4.28;100.00
20043;BME280;10182;52.896;6.496;2024-03-23T23:46:57;100109.56;;;4.29;100.00
20043;BME280;10182;52.896;6.496;2024-03-23T23:52:00;100091.56;;;4.45;100.00
20043;BME280;10182;52.896;6.496;2024-03-23T23:57:02;100094.31;;;4.40;100.00
